createdAt,value
2017-10-30T00:02:27.443Z,101393.02
2017-10-30T00:05:02.399Z,101391.62
2017-10-30T00:07:37.059Z,101378.09
2017-10-30T00:10:11.870Z,101392.67
2017-10-30T00:12:46.595Z,101391.23
2017-10-30T00:15:21.318Z,101394.58
2017-10-30T00:17:56.080Z,101390.84
2017-10-30T00:20:30.869Z,101392.97
2017-10-30T00:23:05.481Z,101387.88
2017-10-30T00:25:40.146Z,101396.37
2017-10-30T00:28:14.511Z,101395.23
2017-10-30T00:30:49.378Z,101399.21
2017-10-30T00:33:24.159Z,101411.19
2017-10-30T00:35:59.119Z,101410.50
2017-10-30T00:38:33.742Z,101412.43
2017-10-30T00:41:08.635Z,101421.47
2017-10-30T00:43:44.227Z,101429.17
2017-10-30T00:46:19.270Z,101417.07
2017-10-30T00:48:54.206Z,101427.07
2017-10-30T00:51:28.855Z,101431.05
2017-10-30T00:54:04.390Z,101422.81
2017-10-30T00:56:39.171Z,101427.17
2017-10-30T00:59:13.871Z,101434.19
2017-10-30T01:01:49.706Z,101436.32
2017-10-30T01:04:24.318Z,101428.34
2017-10-30T01:06:59.042Z,101421.62
2017-10-30T01:09:33.834Z,101425.59
2017-10-30T01:12:08.935Z,101429.17
2017-10-30T01:14:43.584Z,101438.06
2017-10-30T01:17:19.588Z,101433.48
2017-10-30T01:19:55.239Z,101449.55
2017-10-30T01:22:30.192Z,101459.73
2017-10-30T01:25:04.731Z,101464.06
2017-10-30T01:27:39.419Z,101457.91
2017-10-30T01:30:14.151Z,101446.98
2017-10-30T01:32:48.811Z,101453.30
2017-10-30T01:35:23.567Z,101444.45
2017-10-30T01:37:58.279Z,101443.41
2017-10-30T01:40:32.991Z,101452.20
2017-10-30T01:43:07.687Z,101448.17
2017-10-30T01:45:42.375Z,101462.17
2017-10-30T01:48:16.775Z,101448.87
2017-10-30T01:50:51.836Z,101448.77
2017-10-30T01:53:26.424Z,101441.83
2017-10-30T01:56:00.787Z,101448.62
2017-10-30T01:58:35.236Z,101451.90
2017-10-30T02:01:11.382Z,101448.19
2017-10-30T02:03:46.311Z,101458.66
2017-10-30T02:06:21.126Z,101457.72
2017-10-30T02:08:56.018Z,101453.83
2017-10-30T02:11:30.478Z,101456.26
2017-10-30T02:14:06.635Z,101452.98
2017-10-30T02:16:41.246Z,101448.02
2017-10-30T02:19:16.551Z,101452.39
2017-10-30T02:21:51.290Z,101453.87
2017-10-30T02:24:25.838Z,101446.17
2017-10-30T02:27:00.527Z,101449.73
2017-10-30T02:29:34.980Z,101455.98
2017-10-30T02:32:09.468Z,101455.45
2017-10-30T02:34:43.964Z,101460.76
2017-10-30T02:37:18.623Z,101471.58
2017-10-30T02:39:53.263Z,101468.70
2017-10-30T02:42:28.008Z,101466.92
2017-10-30T02:45:02.647Z,101473.52
2017-10-30T02:47:37.408Z,101473.87
2017-10-30T02:50:12.061Z,101469.55
2017-10-30T02:52:46.791Z,101468.02
2017-10-30T02:55:21.515Z,101466.58
2017-10-30T02:57:56.167Z,101471.59
2017-10-30T03:00:30.847Z,101484.78
2017-10-30T03:03:05.519Z,101478.98
2017-10-30T03:05:40.179Z,101479.20
2017-10-30T03:08:14.739Z,101487.34
2017-10-30T03:10:49.379Z,101488.05
2017-10-30T03:13:24.224Z,101489.99
2017-10-30T03:15:58.934Z,101499.13
2017-10-30T03:18:33.699Z,101497.84
2017-10-30T03:21:08.286Z,101501.56
2017-10-30T03:23:42.750Z,101512.52
2017-10-30T03:26:17.243Z,101521.14
2017-10-30T03:28:51.687Z,101520.75
2017-10-30T03:31:26.503Z,101518.42
2017-10-30T03:34:01.255Z,101529.34
2017-10-30T03:36:36.079Z,101527.72
2017-10-30T03:39:10.466Z,101531.65
2017-10-30T03:41:45.386Z,101512.48
2017-10-30T03:44:20.020Z,101537.63
2017-10-30T03:46:54.723Z,101535.36
2017-10-30T03:49:28.895Z,101544.33
2017-10-30T03:52:03.676Z,101550.94
2017-10-30T03:54:38.582Z,101545.27
2017-10-30T03:57:13.308Z,101546.02
2017-10-30T03:59:47.599Z,101549.55
2017-10-30T04:02:22.241Z,101552.13
2017-10-30T04:04:56.908Z,101556.21
2017-10-30T04:07:31.951Z,101553.66
2017-10-30T04:10:06.619Z,101565.59
2017-10-30T04:12:42.318Z,101569.66
2017-10-30T04:15:17.140Z,101564.25
2017-10-30T04:17:52.979Z,101571.14
2017-10-30T04:20:28.062Z,101573.81
2017-10-30T04:23:02.766Z,101576.00
2017-10-30T04:25:37.487Z,101587.70
2017-10-30T04:28:12.168Z,101584.52
2017-10-30T04:30:46.803Z,101594.26
2017-10-30T04:33:21.571Z,101593.91
2017-10-30T04:35:56.074Z,101592.89
2017-10-30T04:38:30.913Z,101598.44
2017-10-30T04:41:05.642Z,101597.38
2017-10-30T04:43:40.464Z,101602.55
2017-10-30T04:46:15.255Z,101599.97
2017-10-30T04:48:49.962Z,101597.60
2017-10-30T04:51:24.667Z,101604.88
2017-10-30T04:53:59.523Z,101601.22
2017-10-30T04:56:34.511Z,101604.59
2017-10-30T04:59:09.443Z,101481.27
2017-10-30T05:01:43.914Z,101613.76
2017-10-30T05:04:18.571Z,101611.94
2017-10-30T05:06:53.402Z,101626.08
2017-10-30T05:09:28.159Z,101614.20
2017-10-30T05:12:02.838Z,101616.92
2017-10-30T05:14:37.523Z,101622.73
2017-10-30T05:17:12.195Z,101624.06
2017-10-30T05:19:46.882Z,101622.41
2017-10-30T05:22:21.614Z,101634.84
2017-10-30T05:24:56.358Z,101640.37
2017-10-30T05:27:31.219Z,101631.88
2017-10-30T05:30:06.103Z,101630.67
2017-10-30T05:32:41.850Z,101634.52
2017-10-30T05:35:16.279Z,101623.77
2017-10-30T05:37:51.215Z,101634.03
2017-10-30T05:40:25.935Z,101630.55
2017-10-30T05:43:00.663Z,101641.88
2017-10-30T05:45:35.446Z,101644.20
2017-10-30T05:48:10.683Z,101649.25
2017-10-30T05:50:45.675Z,101645.86
2017-10-30T05:53:20.479Z,101652.47
2017-10-30T05:55:55.324Z,101654.83
2017-10-30T05:58:30.159Z,101661.52
2017-10-30T06:01:05.112Z,101658.09
2017-10-30T06:03:39.630Z,101664.88
2017-10-30T06:06:14.567Z,101676.53
2017-10-30T06:08:48.951Z,101687.38
2017-10-30T06:11:23.687Z,101686.39
2017-10-30T06:13:58.836Z,101689.27
2017-10-30T06:16:33.587Z,101689.23
2017-10-30T06:19:08.310Z,101692.09
2017-10-30T06:21:43.159Z,101699.52
2017-10-30T06:24:17.951Z,101702.34
2017-10-30T06:26:53.195Z,101692.87
2017-10-30T06:29:28.242Z,101711.87
2017-10-30T06:32:03.019Z,101713.34
2017-10-30T06:34:37.706Z,101715.16
2017-10-30T06:37:12.504Z,101723.76
2017-10-30T06:39:47.255Z,101721.70
2017-10-30T06:42:22.483Z,101715.66
2017-10-30T06:44:57.775Z,101722.27
2017-10-30T06:47:32.496Z,101729.58
2017-10-30T06:50:07.394Z,101734.03
2017-10-30T06:52:42.207Z,101734.44
2017-10-30T06:55:16.955Z,101735.55
2017-10-30T06:57:51.727Z,101752.17
2017-10-30T07:00:26.484Z,101746.41
2017-10-30T07:03:01.287Z,101754.64
2017-10-30T07:05:36.062Z,101759.95
2017-10-30T07:08:10.711Z,101763.77
2017-10-30T07:10:45.525Z,101768.09
2017-10-30T07:13:20.509Z,101776.65
2017-10-30T07:15:54.884Z,101777.50
2017-10-30T07:18:29.515Z,101788.12
2017-10-30T07:21:03.851Z,101794.05
2017-10-30T07:23:38.962Z,101797.55
2017-10-30T07:26:13.598Z,101804.11
2017-10-30T07:28:48.094Z,101803.34
2017-10-30T07:31:22.987Z,101806.16
2017-10-30T07:33:57.471Z,101823.68
2017-10-30T07:36:32.308Z,101810.72
2017-10-30T07:39:07.034Z,101807.41
2017-10-30T07:41:41.784Z,101802.56
2017-10-30T07:44:16.542Z,101807.83
2017-10-30T07:46:51.318Z,101811.83
2017-10-30T07:49:26.081Z,101823.09
2017-10-30T07:52:00.659Z,101820.33
2017-10-30T07:54:35.486Z,101810.98
2017-10-30T07:57:10.180Z,101809.02
2017-10-30T07:59:44.785Z,101820.91
2017-10-30T08:02:19.446Z,101821.59
2017-10-30T08:04:54.282Z,101818.72
2017-10-30T08:07:29.268Z,101825.93
2017-10-30T08:10:03.547Z,101828.80
2017-10-30T08:12:38.125Z,101827.89
2017-10-30T08:15:12.781Z,101831.10
2017-10-30T08:17:47.415Z,101814.92
2017-10-30T08:20:21.868Z,101839.52
2017-10-30T08:22:56.487Z,101838.23
2017-10-30T08:25:31.072Z,101845.04
2017-10-30T08:28:05.727Z,101852.75
2017-10-30T08:30:40.280Z,101851.05
2017-10-30T08:33:14.868Z,101853.89
2017-10-30T08:35:49.507Z,101856.22
2017-10-30T08:38:24.211Z,101851.43
2017-10-30T08:40:58.883Z,101855.95
2017-10-30T08:43:33.547Z,101863.87
2017-10-30T08:46:08.215Z,101865.97
2017-10-30T08:48:42.855Z,101867.94
2017-10-30T08:51:17.579Z,101864.20
2017-10-30T08:53:52.368Z,101869.61
2017-10-30T08:56:27.039Z,101866.98
2017-10-30T08:59:01.875Z,101873.91
2017-10-30T09:01:36.789Z,101871.94
2017-10-30T09:04:11.552Z,101872.77
2017-10-30T09:06:46.476Z,101881.83
2017-10-30T09:09:21.275Z,101876.37
2017-10-30T09:11:55.859Z,101878.34
2017-10-30T09:14:30.887Z,101888.67
2017-10-30T09:17:05.160Z,101884.11
2017-10-30T09:19:39.944Z,101883.53
2017-10-30T09:22:14.320Z,101892.44
2017-10-30T09:24:48.899Z,101891.66
2017-10-30T09:27:23.567Z,101893.44
2017-10-30T09:29:58.323Z,101895.40
2017-10-30T09:32:32.807Z,101897.52
2017-10-30T09:35:07.367Z,101899.42
2017-10-30T09:37:42.103Z,101902.27
2017-10-30T09:40:16.438Z,101901.73
2017-10-30T09:42:51.119Z,101907.16
2017-10-30T09:45:25.654Z,101911.48
2017-10-30T09:48:00.463Z,101902.41
2017-10-30T09:50:35.012Z,101902.63
2017-10-30T09:53:09.736Z,101910.03
2017-10-30T09:55:44.343Z,101912.45
2017-10-30T09:58:19.158Z,101918.23
2017-10-30T10:00:53.749Z,101926.83
2017-10-30T10:03:28.347Z,101923.44
2017-10-30T10:06:03.009Z,101924.89
2017-10-30T10:08:37.578Z,101930.38
2017-10-30T10:11:12.155Z,101932.78
2017-10-30T10:13:47.038Z,101926.21
2017-10-30T10:16:21.663Z,101925.42
2017-10-30T10:18:56.391Z,101925.05
2017-10-30T10:21:30.822Z,101925.47
2017-10-30T10:24:05.655Z,101934.28
2017-10-30T10:26:40.207Z,101925.81
2017-10-30T10:29:14.835Z,101930.00
2017-10-30T10:31:49.706Z,101919.85
2017-10-30T10:34:24.386Z,101925.05
2017-10-30T10:36:59.282Z,101927.09
2017-10-30T10:39:33.711Z,101924.36
2017-10-30T10:42:08.402Z,101930.66
2017-10-30T10:44:42.895Z,101914.48
2017-10-30T10:47:17.831Z,101939.85
2017-10-30T10:49:53.503Z,101935.74
2017-10-30T10:52:27.808Z,101936.08
2017-10-30T10:55:02.547Z,101932.88
2017-10-30T10:57:37.120Z,101935.30
2017-10-30T11:00:11.847Z,101942.98
2017-10-30T11:02:46.587Z,101937.07
2017-10-30T11:05:21.578Z,101942.48
2017-10-30T11:07:57.310Z,101938.39
2017-10-30T11:10:31.891Z,101938.80
2017-10-30T11:13:06.651Z,101940.00
2017-10-30T11:15:41.502Z,101936.39
2017-10-30T11:18:16.102Z,101935.57
2017-10-30T11:20:50.731Z,101937.90
2017-10-30T11:23:25.582Z,101935.43
2017-10-30T11:25:59.951Z,101937.52
2017-10-30T11:28:34.808Z,101939.94
2017-10-30T11:31:09.206Z,101932.07
2017-10-30T11:33:44.250Z,101935.09
2017-10-30T11:36:18.863Z,101942.42
2017-10-30T11:38:53.528Z,101940.45
2017-10-30T11:41:27.887Z,101942.63
2017-10-30T11:44:03.971Z,101940.12
2017-10-30T11:46:38.542Z,101952.84
2017-10-30T11:49:14.144Z,101946.79
2017-10-30T11:51:48.995Z,101947.88
2017-10-30T11:54:23.848Z,101947.73
2017-10-30T11:56:58.411Z,101939.31
2017-10-30T11:59:33.099Z,101943.72
2017-10-30T12:02:07.623Z,101936.08
2017-10-30T12:04:41.787Z,101931.30
2017-10-30T12:07:16.819Z,101930.09
2017-10-30T12:09:52.154Z,101939.05
2017-10-30T12:12:26.955Z,101944.48
2017-10-30T12:15:01.708Z,101951.77
2017-10-30T12:17:36.410Z,101959.56
2017-10-30T12:20:11.247Z,101953.95
2017-10-30T12:22:46.071Z,101954.39
2017-10-30T12:25:20.717Z,101952.26
2017-10-30T12:27:55.391Z,101949.11
2017-10-30T12:30:29.943Z,101957.81
2017-10-30T12:33:03.864Z,101950.77
2017-10-30T12:35:39.019Z,101947.20
2017-10-30T12:38:14.467Z,101954.13
2017-10-30T12:40:49.088Z,101958.97
2017-10-30T12:43:23.797Z,101958.33
2017-10-30T12:45:59.745Z,101948.95
2017-10-30T12:48:34.235Z,101951.17
2017-10-30T12:51:10.024Z,101945.11
2017-10-30T12:53:44.754Z,101949.02
2017-10-30T12:56:19.183Z,101948.44
2017-10-30T12:58:54.413Z,101973.72
2017-10-30T13:01:28.950Z,101984.80
2017-10-30T13:04:03.254Z,101995.67
2017-10-30T13:06:38.095Z,102002.70
2017-10-30T13:09:12.471Z,102011.84
2017-10-30T13:11:48.624Z,102003.14
2017-10-30T13:14:23.122Z,101999.16
2017-10-30T13:16:57.702Z,101998.70
2017-10-30T13:19:32.093Z,102001.89
2017-10-30T13:22:07.034Z,102001.50
2017-10-30T13:24:42.101Z,102002.06
2017-10-30T13:27:16.693Z,102004.35
2017-10-30T13:29:51.387Z,102007.95
2017-10-30T13:32:26.307Z,102005.33
2017-10-30T13:35:00.982Z,102009.53
2017-10-30T13:37:36.881Z,102010.80
2017-10-30T13:40:12.474Z,102010.75
2017-10-30T13:42:47.300Z,102010.25
2017-10-30T13:45:22.102Z,102009.23
2017-10-30T13:47:56.831Z,102009.84
2017-10-30T13:50:31.510Z,102014.95
2017-10-30T13:53:07.313Z,102009.55
2017-10-30T13:55:42.939Z,102014.31
2017-10-30T13:58:17.831Z,102023.25
2017-10-30T14:00:52.466Z,102024.20
2017-10-30T14:03:27.243Z,102032.67
2017-10-30T14:06:02.135Z,102036.41
2017-10-30T14:08:36.592Z,102029.00
2017-10-30T14:11:11.132Z,102031.41
2017-10-30T14:13:46.894Z,102030.09
2017-10-30T14:16:22.511Z,102028.48
2017-10-30T14:18:57.130Z,102034.05
2017-10-30T14:21:31.974Z,102023.98
2017-10-30T14:24:06.399Z,102029.22
2017-10-30T14:26:44.507Z,102031.73
2017-10-30T14:29:19.486Z,102036.86
2017-10-30T14:31:54.346Z,102035.31
2017-10-30T14:34:28.936Z,102033.41
2017-10-30T14:37:03.452Z,102032.30
2017-10-30T14:39:37.919Z,102034.09
2017-10-30T14:42:12.355Z,102028.50
2017-10-30T14:44:47.123Z,102034.80
2017-10-30T14:47:21.608Z,102038.45
2017-10-30T14:49:56.428Z,102042.73
2017-10-30T14:52:31.042Z,102047.92
2017-10-30T14:55:05.678Z,102045.17
2017-10-30T14:57:40.420Z,102036.89
2017-10-30T15:00:20.198Z,102045.05
2017-10-30T15:02:54.658Z,102041.69
2017-10-30T15:05:29.494Z,102045.62
2017-10-30T15:08:04.263Z,102051.42
2017-10-30T15:10:38.899Z,102032.80
2017-10-30T15:13:13.862Z,102037.64
2017-10-30T15:15:48.206Z,102037.47
2017-10-30T15:18:22.850Z,102044.33
2017-10-30T15:20:57.270Z,102052.64
2017-10-30T15:23:32.119Z,102054.69
2017-10-30T15:26:06.564Z,102056.56
2017-10-30T15:28:41.335Z,102057.39
2017-10-30T15:31:15.787Z,102059.27
2017-10-30T15:33:51.318Z,102057.29
2017-10-30T15:36:25.963Z,102058.61
2017-10-30T15:39:00.604Z,102058.23
2017-10-30T15:41:36.171Z,102047.34
2017-10-30T15:44:10.837Z,102042.05
2017-10-30T15:46:45.378Z,102047.90
2017-10-30T15:49:20.458Z,102053.85
2017-10-30T15:51:54.919Z,102054.67
2017-10-30T15:54:29.651Z,102057.83
2017-10-30T15:57:04.767Z,102058.02
2017-10-30T15:59:40.011Z,102059.33
2017-10-30T16:02:15.607Z,102061.38
2017-10-30T16:04:50.259Z,102063.29
2017-10-30T16:07:24.774Z,102062.36
2017-10-30T16:09:59.507Z,102065.50
2017-10-30T16:12:34.310Z,102067.85
2017-10-30T16:15:09.092Z,102067.41
2017-10-30T16:17:44.707Z,102074.70
2017-10-30T16:20:19.446Z,102076.64
2017-10-30T16:22:54.067Z,102078.14
2017-10-30T16:25:29.631Z,102080.93
2017-10-30T16:28:04.319Z,102090.75
2017-10-30T16:30:39.760Z,102096.84
2017-10-30T16:33:14.849Z,102097.25
2017-10-30T16:35:49.443Z,102097.34
2017-10-30T16:38:23.769Z,102103.44
2017-10-30T16:40:58.598Z,102093.21
2017-10-30T16:43:32.975Z,102095.26
2017-10-30T16:46:07.604Z,102104.48
2017-10-30T16:48:42.023Z,102094.17
2017-10-30T16:51:16.744Z,102117.16
2017-10-30T16:53:51.702Z,102110.86
2017-10-30T16:56:26.090Z,102110.07
2017-10-30T16:59:00.744Z,102102.94
2017-10-30T17:01:35.355Z,102101.64
2017-10-30T17:04:09.803Z,102105.38
2017-10-30T17:06:44.678Z,102111.97
2017-10-30T17:09:19.503Z,102112.67
2017-10-30T17:11:54.314Z,102118.41
2017-10-30T17:14:28.942Z,102119.11
2017-10-30T17:17:04.600Z,102107.98
2017-10-30T17:19:40.160Z,102130.77
2017-10-30T17:22:14.861Z,102142.23
2017-10-30T17:24:49.795Z,102140.09
2017-10-30T17:27:24.330Z,102135.55
2017-10-30T17:29:59.099Z,102125.33
2017-10-30T17:32:33.804Z,102137.85
2017-10-30T17:35:08.459Z,102141.92
2017-10-30T17:37:43.112Z,102138.76
2017-10-30T17:40:17.751Z,102143.50
2017-10-30T17:42:52.427Z,102148.17
2017-10-30T17:45:26.951Z,102145.14
2017-10-30T17:48:03.786Z,102140.04
2017-10-30T17:50:38.423Z,102146.09
2017-10-30T17:53:13.376Z,102147.75
2017-10-30T17:55:48.149Z,102145.91
2017-10-30T17:58:23.159Z,102129.02
2017-10-30T18:00:57.971Z,102146.84
2017-10-30T18:03:32.631Z,102148.42
2017-10-30T18:06:07.399Z,102147.97
2017-10-30T18:08:43.068Z,102142.89
2017-10-30T18:11:17.679Z,102135.63
2017-10-30T18:13:53.327Z,102137.48
2017-10-30T18:16:28.175Z,102140.05
2017-10-30T18:19:03.827Z,102141.09
2017-10-30T18:21:38.502Z,102142.03
2017-10-30T18:24:12.956Z,102141.72
2017-10-30T18:26:48.266Z,102141.14
2017-10-30T18:29:22.930Z,102151.87
2017-10-30T18:31:57.698Z,102154.20
2017-10-30T18:34:32.504Z,102152.45
2017-10-30T18:37:07.114Z,102155.91
2017-10-30T18:39:42.112Z,102156.75
2017-10-30T18:42:16.663Z,102163.73
2017-10-30T18:44:51.331Z,102162.77
2017-10-30T18:47:26.171Z,102156.63
2017-10-30T18:50:00.948Z,102157.12
2017-10-30T18:52:35.799Z,102157.44
2017-10-30T18:55:10.420Z,102156.53
2017-10-30T18:57:45.043Z,102150.84
2017-10-30T19:00:19.899Z,102155.25
2017-10-30T19:02:54.703Z,102166.51
2017-10-30T19:05:29.182Z,102168.22
2017-10-30T19:08:03.896Z,102167.77
2017-10-30T19:10:38.491Z,102173.80
2017-10-30T19:13:13.198Z,102169.14
2017-10-30T19:15:48.067Z,102168.47
2017-10-30T19:18:22.863Z,102174.61
2017-10-30T19:20:57.700Z,102175.16
2017-10-30T19:23:32.459Z,102178.25
2017-10-30T19:26:07.255Z,102167.72
2017-10-30T19:28:41.964Z,102172.25
2017-10-30T19:31:16.835Z,102178.07
2017-10-30T19:33:55.815Z,102178.03
2017-10-30T19:36:30.375Z,102184.16
2017-10-30T19:39:04.503Z,102184.34
2017-10-30T19:41:40.659Z,102186.13
2017-10-30T19:44:15.256Z,102183.17
2017-10-30T19:46:50.407Z,102184.86
2017-10-30T19:49:25.083Z,102188.58
2017-10-30T19:51:59.715Z,102186.34
2017-10-30T19:54:34.246Z,102189.56
2017-10-30T19:57:09.325Z,102182.83
2017-10-30T19:59:44.032Z,102179.56
2017-10-30T20:02:19.479Z,102195.20
2017-10-30T20:04:54.403Z,102186.75
2017-10-30T20:20:56.691Z,102191.88
2017-10-30T20:23:31.375Z,102203.11
2017-10-30T20:26:06.067Z,102203.85
2017-10-30T20:28:40.803Z,102207.11
2017-10-30T20:31:16.467Z,102202.52
2017-10-30T20:33:50.987Z,102204.38
2017-10-30T20:36:25.835Z,102203.09
2017-10-30T20:39:00.591Z,102200.77
2017-10-30T20:41:35.019Z,102205.20
2017-10-30T20:44:09.790Z,102204.91
2017-10-30T20:46:44.527Z,102203.70
2017-10-30T20:49:19.315Z,102208.83
2017-10-30T20:51:54.074Z,102205.81
2017-10-30T20:54:28.889Z,102198.38
2017-10-30T20:57:03.751Z,102200.42
2017-10-30T20:59:38.654Z,102198.63
2017-10-30T21:02:14.179Z,102199.16
2017-10-30T21:04:49.100Z,102201.11
2017-10-30T21:07:24.026Z,102209.05
2017-10-30T21:09:58.602Z,102207.82
2017-10-30T21:12:33.551Z,102216.36
2017-10-30T21:15:08.423Z,102219.78
2017-10-30T21:17:43.055Z,102219.62
2017-10-30T21:20:17.775Z,102208.59
2017-10-30T21:22:52.619Z,102218.11
2017-10-30T21:25:27.351Z,102219.32
2017-10-30T21:28:02.111Z,102221.47
2017-10-30T21:30:36.839Z,102216.55
2017-10-30T21:33:10.986Z,102213.74
2017-10-30T21:35:46.063Z,102210.20
2017-10-30T21:38:21.179Z,102210.20
2017-10-30T21:40:55.544Z,102200.33
2017-10-30T21:43:30.247Z,102206.92
2017-10-30T21:46:04.574Z,102202.05
2017-10-30T21:48:39.642Z,102202.16
2017-10-30T21:51:14.267Z,102196.42
2017-10-30T21:53:49.013Z,102203.70
2017-10-30T21:56:23.695Z,102197.59
2017-10-30T21:58:58.444Z,102199.17
2017-10-30T22:01:33.179Z,102200.48
2017-10-30T22:04:07.911Z,102204.66
2017-10-30T22:06:42.647Z,102200.83
2017-10-30T22:09:17.386Z,102204.16
2017-10-30T22:11:52.103Z,102202.52
2017-10-30T22:14:27.865Z,102204.91
2017-10-30T22:17:02.603Z,102197.55
2017-10-30T22:19:37.438Z,102203.92
2017-10-30T22:22:13.044Z,102196.77
2017-10-30T22:24:48.844Z,102210.77
2017-10-30T22:27:23.519Z,102204.14
2017-10-30T22:29:58.170Z,102204.67
2017-10-30T22:32:32.879Z,102205.56
2017-10-30T22:35:07.699Z,102201.20
2017-10-30T22:37:42.443Z,102198.72
2017-10-30T22:40:17.191Z,102194.92
2017-10-30T22:42:51.995Z,102198.84
2017-10-30T22:45:26.791Z,102201.73
2017-10-30T22:48:01.407Z,102203.08
2017-10-30T22:50:35.938Z,102203.64
2017-10-30T22:53:10.786Z,102210.48
2017-10-30T22:55:45.555Z,102202.07
2017-10-30T22:58:21.319Z,102202.92
2017-10-30T23:00:55.946Z,102202.07
2017-10-30T23:03:30.568Z,102196.19
2017-10-30T23:06:04.949Z,102197.42
2017-10-30T23:08:39.906Z,102198.80
2017-10-30T23:11:14.663Z,102200.14
2017-10-30T23:13:49.383Z,102191.73
2017-10-30T23:16:24.303Z,102192.14
2017-10-30T23:18:58.947Z,102183.77
2017-10-30T23:21:33.790Z,102180.19
2017-10-30T23:24:09.059Z,102182.77
2017-10-30T23:26:44.000Z,102181.98
2017-10-30T23:29:18.706Z,102182.80
2017-10-30T23:31:53.322Z,102178.84
2017-10-30T23:34:27.915Z,102183.87
2017-10-30T23:37:02.682Z,102180.81
2017-10-30T23:39:37.324Z,102180.89
2017-10-30T23:42:11.995Z,102183.75
2017-10-30T23:44:46.695Z,102177.64
2017-10-30T23:47:21.471Z,102186.20
2017-10-30T23:49:56.451Z,102190.14
2017-10-30T23:52:31.787Z,102186.02
2017-10-30T23:55:06.363Z,102185.05
2017-10-30T23:57:41.210Z,102180.62
